Time;durP1;ratioP1;P1;durP2;ratioP2;P2;SDS_P1;SDS_P2;PMS_P1;PMS_P2;Temp;Humidity;BMP_temperature;BMP_pressure;BME280_temperature;BME280_humidity;BME280_pressure;Samples;Min_cycle;Max_cycle;Signal;HPM_P1;HPM_P2
2022/11/22 00:00:40;;;;;;;0.10;0.10;;;;;;;;;;5032281;28;20370;-76
2022/11/22 00:03:05;;;;;;;0.15;0.10;;;;;;;;;;5032013;28;20052;-75
2022/11/22 00:05:31;;;;;;;0.10;0.10;;;;;;;;;;5032832;28;20014;-74
2022/11/22 00:07:57;;;;;;;0.20;0.20;;;;;;;;;;5031883;28;20041;-74
2022/11/22 00:10:23;;;;;;;0.80;0.30;;;;;;;;;;5032481;28;20385;-74
2022/11/22 00:12:49;;;;;;;0.13;0.13;;;;;;;;;;5031741;28;20056;-75
2022/11/22 00:15:14;;;;;;;0.32;0.32;;;;;;;;;;5030715;28;20112;-76
2022/11/22 00:17:40;;;;;;;1.85;1.52;;;;;;;;;;5035632;28;20032;-74
2022/11/22 00:20:07;;;;;;;0.10;0.10;;;;;;;;;;5035192;28;20025;-74
2022/11/22 00:22:32;;;;;;;0.20;0.10;;;;;;;;;;5036472;28;20033;-76
2022/11/22 00:24:59;;;;;;;0.20;0.20;;;;;;;;;;5035785;28;20038;-75
2022/11/22 00:27:25;;;;;;;0.20;0.20;;;;;;;;;;5035753;28;20104;-75
2022/11/22 00:29:50;;;;;;;0.60;0.38;;;;;;;;;;5035007;28;20133;-74
2022/11/22 00:32:16;;;;;;;1.27;0.30;;;;;;;;;;5035500;28;20029;-74
2022/11/22 00:34:42;;;;;;;0.10;0.10;;;;;;;;;;5036159;28;20493;-73
2022/11/22 00:37:08;;;;;;;0.20;0.20;;;;;;;;;;5034650;28;20039;-74
2022/11/22 00:39:33;;;;;;;20.20;0.88;;;;;;;;;;5032171;28;20420;-74
2022/11/22 00:41:59;;;;;;;0.20;0.20;;;;;;;;;;5048958;28;20418;-75
2022/11/22 00:44:25;;;;;;;0.20;0.10;;;;;;;;;;5033959;28;20091;-75
2022/11/22 00:46:50;;;;;;;0.20;0.10;;;;;;;;;;5033599;28;20028;-74
2022/11/22 00:49:16;;;;;;;0.10;0.10;;;;;;;;;;5033510;28;20042;-75
2022/11/22 00:51:42;;;;;;;0.13;0.13;;;;;;;;;;5033418;28;20029;-74
2022/11/22 00:54:07;;;;;;;0.77;0.77;;;;;;;;;;5032614;28;20477;-75
2022/11/22 00:56:34;;;;;;;0.20;0.20;;;;;;;;;;5033476;28;20048;-75
2022/11/22 00:59:00;;;;;;;0.10;0.10;;;;;;;;;;5033417;28;20029;-76
2022/11/22 01:01:26;;;;;;;1.85;0.52;;;;;;;;;;5033678;28;20013;-75
2022/11/22 01:03:52;;;;;;;0.10;0.10;;;;;;;;;;5049451;28;20048;-76
2022/11/22 01:06:18;;;;;;;0.10;0.10;;;;;;;;;;5049881;28;20037;-76
2022/11/22 01:08:44;;;;;;;0.00;0.00;;;;;;;;;;5034935;28;20021;-75
2022/11/22 01:11:09;;;;;;;0.47;0.45;;;;;;;;;;5035012;28;20029;-76
2022/11/22 01:13:35;;;;;;;0.52;0.50;;;;;;;;;;5034909;28;20029;-76
2022/11/22 01:16:06;;;;;;;0.10;0.10;;;;;;;;;;5034765;28;20108;-75
2022/11/22 01:18:32;;;;;;;0.10;0.10;;;;;;;;;;5050350;28;20037;-74
2022/11/22 01:20:58;;;;;;;0.10;0.10;;;;;;;;;;5034719;28;20096;-74
2022/11/22 01:23:24;;;;;;;0.10;0.10;;;;;;;;;;5034872;28;20459;-74
2022/11/22 01:25:51;;;;;;;0.10;0.10;;;;;;;;;;5034645;28;20096;-74
2022/11/22 01:28:17;;;;;;;0.10;0.10;;;;;;;;;;5034613;28;20176;-73
2022/11/22 01:30:43;;;;;;;0.10;0.10;;;;;;;;;;5033103;28;20029;-74
2022/11/22 01:33:09;;;;;;;0.10;0.10;;;;;;;;;;5034442;28;20056;-75
2022/11/22 01:35:35;;;;;;;0.10;0.10;;;;;;;;;;5034501;28;20056;-75
2022/11/22 01:38:01;;;;;;;0.10;0.10;;;;;;;;;;5049890;28;20108;-75
2022/11/22 01:40:26;;;;;;;0.10;0.10;;;;;;;;;;5033575;28;20009;-76
2022/11/22 01:42:54;;;;;;;0.10;0.10;;;;;;;;;;5034382;28;20466;-75
2022/11/22 01:45:30;;;;;;;0.10;0.10;;;;;;;;;;5034003;28;20099;-75
2022/11/22 01:47:57;;;;;;;0.20;0.17;;;;;;;;;;5034230;28;20438;-74
2022/11/22 01:50:24;;;;;;;0.10;0.10;;;;;;;;;;5034134;28;20112;-76
2022/11/22 01:52:51;;;;;;;0.10;0.10;;;;;;;;;;5034101;28;20025;-76
2022/11/22 01:55:17;;;;;;;0.10;0.10;;;;;;;;;;5049539;28;20037;-76
2022/11/22 01:57:44;;;;;;;0.10;0.10;;;;;;;;;;5033948;28;20536;-75
2022/11/22 02:00:11;;;;;;;0.10;0.10;;;;;;;;;;5033893;28;20100;-76
2022/11/22 02:02:45;;;;;;;0.10;0.10;;;;;;;;;;5034122;28;20034;-76
2022/11/22 02:05:15;;;;;;;0.10;0.10;;;;;;;;;;5033971;28;20120;-76
2022/11/22 02:07:54;;;;;;;0.13;0.13;;;;;;;;;;5033690;28;20041;-76
2022/11/22 02:10:21;;;;;;;0.10;0.10;;;;;;;;;;5033805;28;20026;-75
2022/11/22 02:12:47;;;;;;;0.20;0.15;;;;;;;;;;5032413;28;20034;-76
2022/11/22 02:15:13;;;;;;;0.10;0.10;;;;;;;;;;5032534;28;20103;-76
2022/11/22 02:17:38;;;;;;;0.10;0.10;;;;;;;;;;5033829;28;20018;-76
2022/11/22 02:20:05;;;;;;;0.10;0.10;;;;;;;;;;5033597;28;20029;-76
2022/11/22 02:22:35;;;;;;;0.10;0.10;;;;;;;;;;5032290;28;20059;-76
2022/11/22 02:25:10;;;;;;;0.10;0.10;;;;;;;;;;5033588;28;20389;-76
2022/11/22 02:27:35;;;;;;;0.20;0.10;;;;;;;;;;5032407;28;20029;-74
2022/11/22 02:30:01;;;;;;;0.40;0.10;;;;;;;;;;5032780;28;20029;-74
2022/11/22 02:32:26;;;;;;;1.88;0.55;;;;;;;;;;5033716;28;20079;-74
2022/11/22 02:34:52;;;;;;;0.10;0.10;;;;;;;;;;5033335;28;20049;-74
2022/11/22 02:37:26;;;;;;;0.10;0.10;;;;;;;;;;5033395;28;20033;-74
2022/11/22 02:39:54;;;;;;;0.73;0.20;;;;;;;;;;5033301;28;20038;-75
2022/11/22 02:42:20;;;;;;;8.85;1.38;;;;;;;;;;5033436;28;20030;-75
2022/11/22 02:44:45;;;;;;;1.25;0.57;;;;;;;;;;5033302;28;20026;-75
2022/11/22 02:47:10;;;;;;;13.45;2.72;;;;;;;;;;5033231;28;20519;-77
2022/11/22 02:49:36;;;;;;;12.25;2.78;;;;;;;;;;5033202;28;20104;-77
2022/11/22 02:52:01;;;;;;;8.95;2.75;;;;;;;;;;5032860;28;20021;-77
2022/11/22 02:54:27;;;;;;;13.35;3.25;;;;;;;;;;5048348;28;20033;-77
2022/11/22 02:56:52;;;;;;;5.18;1.30;;;;;;;;;;5033438;28;20437;-75
2022/11/22 02:59:18;;;;;;;1.63;1.05;;;;;;;;;;5033114;28;20457;-76
2022/11/22 03:01:45;;;;;;;11.27;2.33;;;;;;;;;;5033193;28;20104;-75
2022/11/22 03:04:23;;;;;;;15.57;2.47;;;;;;;;;;5032201;28;20037;-74
2022/11/22 03:06:58;;;;;;;8.80;1.63;;;;;;;;;;5033012;28;20049;-76
2022/11/22 03:09:25;;;;;;;13.00;2.90;;;;;;;;;;5016001;28;20037;-76
2022/11/22 03:11:50;;;;;;;11.75;2.83;;;;;;;;;;5033200;28;20021;-76
2022/11/22 03:14:16;;;;;;;23.17;3.90;;;;;;;;;;5033024;28;20025;-74
2022/11/22 03:16:42;;;;;;;11.77;1.38;;;;;;;;;;5033039;28;20030;-73
2022/11/22 03:19:07;;;;;;;24.13;4.88;;;;;;;;;;5033008;28;20036;-74
2022/11/22 03:21:32;;;;;;;15.50;2.60;;;;;;;;;;5032789;28;20065;-75
2022/11/22 03:23:58;;;;;;;7.07;2.28;;;;;;;;;;5031749;28;20048;-74
2022/11/22 03:26:23;;;;;;;18.95;2.47;;;;;;;;;;5032813;28;20032;-73
2022/11/22 03:28:49;;;;;;;28.20;4.10;;;;;;;;;;5033001;28;20021;-74
2022/11/22 03:31:14;;;;;;;16.88;3.25;;;;;;;;;;5048314;28;20033;-74
2022/11/22 03:33:39;;;;;;;14.05;2.92;;;;;;;;;;5032860;28;20053;-74
2022/11/22 03:36:05;;;;;;;8.10;1.33;;;;;;;;;;5032675;28;20524;-74
2022/11/22 03:38:30;;;;;;;4.38;0.82;;;;;;;;;;5032956;28;20037;-74
2022/11/22 03:40:56;;;;;;;15.20;1.83;;;;;;;;;;5032941;28;20040;-74
2022/11/22 03:43:21;;;;;;;9.63;1.63;;;;;;;;;;5032672;28;20041;-75
2022/11/22 03:45:47;;;;;;;23.33;3.88;;;;;;;;;;5032708;28;20096;-76
2022/11/22 03:48:13;;;;;;;17.50;2.47;;;;;;;;;;5033040;28;20026;-76
2022/11/22 03:50:38;;;;;;;6.05;0.88;;;;;;;;;;5032521;28;20037;-74
2022/11/22 03:53:04;;;;;;;18.23;3.85;;;;;;;;;;5032526;28;20029;-75
2022/11/22 03:55:29;;;;;;;8.35;2.28;;;;;;;;;;5032830;28;20018;-75
2022/11/22 03:57:55;;;;;;;7.38;2.20;;;;;;;;;;5032765;28;20049;-76
2022/11/22 04:00:20;;;;;;;19.38;4.03;;;;;;;;;;5032698;28;20367;-76
2022/11/22 04:02:46;;;;;;;18.20;3.42;;;;;;;;;;5028313;28;20061;-76
2022/11/22 04:05:11;;;;;;;6.78;2.35;;;;;;;;;;5031357;28;20021;-76
2022/11/22 04:07:36;;;;;;;17.70;3.55;;;;;;;;;;5032524;28;20073;-75
2022/11/22 04:10:02;;;;;;;12.82;2.38;;;;;;;;;;5032411;28;20128;-75
2022/11/22 04:12:29;;;;;;;14.70;2.50;;;;;;;;;;5032233;28;20036;-74
2022/11/22 04:15:06;;;;;;;12.85;2.95;;;;;;;;;;5032368;28;20029;-75
2022/11/22 04:17:39;;;;;;;11.48;2.08;;;;;;;;;;5048427;28;20356;-74
2022/11/22 04:22:54;;;;;;;4.18;0.80;;;;;;;;;;5031347;28;20120;-74
2022/11/22 04:25:20;;;;;;;2.50;0.82;;;;;;;;;;5031261;28;20029;-74
2022/11/22 04:27:45;;;;;;;24.35;3.08;;;;;;;;;;5031815;28;20380;-74
2022/11/22 04:30:11;;;;;;;9.95;2.08;;;;;;;;;;5031874;28;20061;-74
2022/11/22 04:32:46;;;;;;;4.13;0.85;;;;;;;;;;5031794;28;20060;-75
2022/11/22 04:35:17;;;;;;;14.73;2.20;;;;;;;;;;5032073;28;20030;-75
2022/11/22 04:37:48;;;;;;;6.63;1.60;;;;;;;;;;5047325;28;20120;-75
2022/11/22 04:40:14;;;;;;;17.17;4.25;;;;;;;;;;5031497;28;20108;-75
2022/11/22 04:45:24;;;;;;;20.38;3.33;;;;;;;;;;5032013;28;20401;-75
2022/11/22 04:47:59;;;;;;;11.40;2.20;;;;;;;;;;5031629;28;20477;-74
2022/11/22 04:53:11;;;;;;;12.20;2.78;;;;;;;;;;5031746;28;20039;-74
2022/11/22 04:55:37;;;;;;;12.15;1.65;;;;;;;;;;5030130;28;20389;-74
2022/11/22 04:58:03;;;;;;;10.88;2.25;;;;;;;;;;5031148;28;20014;-74
2022/11/22 05:00:29;;;;;;;15.65;2.17;;;;;;;;;;5030478;28;20028;-74
2022/11/22 05:02:55;;;;;;;5.20;1.33;;;;;;;;;;5030735;28;20112;-74
2022/11/22 05:05:21;;;;;;;6.45;0.90;;;;;;;;;;5031315;28;20052;-74
2022/11/22 05:07:47;;;;;;;11.77;2.00;;;;;;;;;;5046453;28;20524;-74
2022/11/22 05:10:13;;;;;;;3.40;0.82;;;;;;;;;;5030990;28;20038;-74
2022/11/22 05:12:41;;;;;;;16.73;1.83;;;;;;;;;;5029724;28;20026;-75
2022/11/22 05:15:10;;;;;;;10.68;2.03;;;;;;;;;;5030654;28;20029;-73
2022/11/22 05:17:39;;;;;;;0.88;0.40;;;;;;;;;;5031179;28;20096;-75
2022/11/22 05:20:06;;;;;;;3.33;0.60;;;;;;;;;;5030750;28;20112;-73
2022/11/22 05:25:17;;;;;;;11.27;1.45;;;;;;;;;;5031146;28;20038;-74
2022/11/22 05:27:42;;;;;;;4.95;1.25;;;;;;;;;;5030932;28;20305;-73
2022/11/22 05:30:08;;;;;;;5.07;0.98;;;;;;;;;;5029930;28;20480;-74
2022/11/22 05:32:34;;;;;;;23.10;2.40;;;;;;;;;;5030654;28;20034;-73
2022/11/22 05:35:00;;;;;;;8.52;1.02;;;;;;;;;;5030406;28;20025;-72
2022/11/22 05:37:27;;;;;;;14.80;2.28;;;;;;;;;;5029777;28;20026;-72
2022/11/22 05:39:53;;;;;;;15.05;1.30;;;;;;;;;;5030425;28;20029;-74
2022/11/22 05:42:19;;;;;;;18.02;2.70;;;;;;;;;;5029967;28;20021;-73
2022/11/22 05:44:45;;;;;;;6.10;2.45;;;;;;;;;;5029832;28;20436;-73
2022/11/22 05:47:11;;;;;;;11.60;2.78;;;;;;;;;;5029194;28;20025;-74
2022/11/22 05:49:36;;;;;;;11.85;2.67;;;;;;;;;;5045303;28;20082;-74
2022/11/22 05:52:03;;;;;;;1.52;0.98;;;;;;;;;;5029605;28;20030;-73
2022/11/22 05:54:29;;;;;;;15.15;3.65;;;;;;;;;;5030059;28;20033;-73
2022/11/22 05:56:55;;;;;;;0.80;0.32;;;;;;;;;;5044974;28;20025;-73
2022/11/22 05:59:32;;;;;;;14.65;1.75;;;;;;;;;;5030281;28;20037;-73
2022/11/22 06:01:58;;;;;;;6.70;1.33;;;;;;;;;;5037356;28;20397;-74
2022/11/22 06:04:24;;;;;;;13.93;3.58;;;;;;;;;;5027542;28;20485;-73
2022/11/22 06:06:50;;;;;;;0.47;0.30;;;;;;;;;;5029579;28;20040;-74
2022/11/22 06:09:16;;;;;;;13.13;3.53;;;;;;;;;;5029099;28;20025;-74
2022/11/22 06:11:42;;;;;;;5.60;0.85;;;;;;;;;;5029926;28;20415;-73
2022/11/22 06:14:08;;;;;;;9.10;1.52;;;;;;;;;;5028828;28;20061;-72
2022/11/22 06:16:34;;;;;;;9.02;3.38;;;;;;;;;;5029814;28;20028;-74
2022/11/22 06:19:00;;;;;;;17.02;1.40;;;;;;;;;;5029349;28;20116;-75
2022/11/22 06:21:27;;;;;;;7.50;1.15;;;;;;;;;;5029504;28;20104;-76
2022/11/22 06:23:53;;;;;;;2.45;0.77;;;;;;;;;;5029566;28;20044;-74
2022/11/22 06:26:19;;;;;;;27.35;2.45;;;;;;;;;;5022115;28;20038;-75
2022/11/22 06:28:46;;;;;;;9.73;1.40;;;;;;;;;;5016754;28;20030;-74
2022/11/22 06:31:12;;;;;;;7.80;0.95;;;;;;;;;;5009912;28;20033;-77
2022/11/22 06:33:38;;;;;;;22.50;3.30;;;;;;;;;;5009654;28;20033;-76
2022/11/22 06:36:08;;;;;;;9.40;1.15;;;;;;;;;;5018519;28;20488;-74
2022/11/22 06:38:35;;;;;;;23.42;5.43;;;;;;;;;;5028500;28;20462;-74
2022/11/22 06:41:01;;;;;;;9.40;1.92;;;;;;;;;;5029913;28;20022;-74
2022/11/22 06:43:28;;;;;;;13.68;4.18;;;;;;;;;;5027353;28;20126;-74
2022/11/22 06:45:54;;;;;;;7.70;2.70;;;;;;;;;;5025225;28;20082;-76
2022/11/22 06:48:20;;;;;;;4.38;0.65;;;;;;;;;;5021952;28;20029;-74
2022/11/22 06:50:47;;;;;;;11.70;1.60;;;;;;;;;;5025544;28;20080;-73
2022/11/22 06:53:14;;;;;;;13.48;2.78;;;;;;;;;;5029119;28;20456;-73
2022/11/22 06:55:39;;;;;;;20.38;1.75;;;;;;;;;;5029536;28;20030;-76
2022/11/22 06:58:05;;;;;;;7.05;1.52;;;;;;;;;;5029167;28;20479;-73
2022/11/22 07:00:32;;;;;;;0.10;0.10;;;;;;;;;;5029382;28;20381;-73
2022/11/22 07:02:58;;;;;;;4.10;1.08;;;;;;;;;;5028890;28;20033;-75
2022/11/22 07:05:24;;;;;;;6.50;0.30;;;;;;;;;;5029361;28;20036;-73
2022/11/22 07:07:49;;;;;;;0.10;0.10;;;;;;;;;;5029095;28;20171;-74
2022/11/22 07:10:15;;;;;;;3.83;1.00;;;;;;;;;;5029139;28;20022;-73
2022/11/22 07:12:41;;;;;;;6.15;1.27;;;;;;;;;;5028474;28;20488;-73
2022/11/22 07:15:08;;;;;;;2.33;0.90;;;;;;;;;;5027986;28;20034;-72
2022/11/22 07:17:34;;;;;;;9.10;0.75;;;;;;;;;;5022786;28;20432;-74
2022/11/22 07:20:00;;;;;;;5.40;0.50;;;;;;;;;;5010344;28;20040;-74
2022/11/22 07:22:27;;;;;;;7.45;1.50;;;;;;;;;;5027799;28;20025;-74
2022/11/22 07:24:53;;;;;;;7.47;1.77;;;;;;;;;;5029446;28;20038;-74
2022/11/22 07:27:19;;;;;;;9.05;1.95;;;;;;;;;;5029357;28;20030;-74
2022/11/22 07:29:45;;;;;;;2.70;0.77;;;;;;;;;;5033430;28;20026;-75
2022/11/22 07:32:11;;;;;;;0.55;0.28;;;;;;;;;;5026772;28;20022;-76
2022/11/22 07:34:37;;;;;;;0.40;0.32;;;;;;;;;;5031265;28;20034;-75
2022/11/22 07:37:03;;;;;;;5.97;1.00;;;;;;;;;;5041390;28;20021;-75
2022/11/22 07:39:29;;;;;;;4.82;0.70;;;;;;;;;;5031490;28;20470;-76
2022/11/22 07:41:54;;;;;;;11.30;1.92;;;;;;;;;;5031690;28;20108;-74
2022/11/22 07:44:21;;;;;;;3.53;0.50;;;;;;;;;;5032312;28;20037;-74
2022/11/22 07:46:48;;;;;;;12.90;0.75;;;;;;;;;;5032884;28;20075;-76
2022/11/22 07:49:14;;;;;;;1.23;0.47;;;;;;;;;;5032936;28;20025;-75
2022/11/22 07:51:40;;;;;;;4.63;1.17;;;;;;;;;;5032730;28;20068;-73
2022/11/22 07:54:06;;;;;;;0.20;0.20;;;;;;;;;;5032809;28;20018;-74
2022/11/22 07:56:33;;;;;;;8.30;1.08;;;;;;;;;;5048097;28;20029;-75
2022/11/22 07:58:59;;;;;;;3.08;1.52;;;;;;;;;;5032802;28;20034;-75
2022/11/22 08:01:24;;;;;;;3.72;1.42;;;;;;;;;;5031982;28;20500;-76
2022/11/22 08:03:50;;;;;;;7.47;1.27;;;;;;;;;;5032343;28;20037;-76
2022/11/22 08:06:17;;;;;;;3.85;0.43;;;;;;;;;;5032466;28;20036;-76
2022/11/22 08:08:43;;;;;;;6.00;1.25;;;;;;;;;;5032295;28;20025;-73
2022/11/22 08:11:10;;;;;;;1.85;0.35;;;;;;;;;;5047588;28;20480;-73
2022/11/22 08:13:35;;;;;;;2.50;0.50;;;;;;;;;;5042946;28;20034;-74
2022/11/22 08:16:06;;;;;;;5.45;1.17;;;;;;;;;;5029812;28;20878;-73
2022/11/22 08:18:32;;;;;;;12.27;1.83;;;;;;;;;;5031100;28;20064;-73
2022/11/22 08:21:01;;;;;;;10.15;2.15;;;;;;;;;;5046448;28;20037;-74
2022/11/22 08:23:26;;;;;;;4.38;1.05;;;;;;;;;;5031198;28;20362;-74
2022/11/22 08:25:52;;;;;;;7.07;1.42;;;;;;;;;;5032397;28;20100;-73
2022/11/22 08:28:18;;;;;;;4.75;0.63;;;;;;;;;;5046032;28;20026;-73
2022/11/22 08:30:44;;;;;;;2.30;0.47;;;;;;;;;;5030845;28;20022;-74
2022/11/22 08:33:10;;;;;;;5.82;1.38;;;;;;;;;;5031881;28;20079;-73
2022/11/22 08:35:35;;;;;;;7.15;1.10;;;;;;;;;;5031948;28;20493;-72
2022/11/22 08:38:02;;;;;;;6.38;1.35;;;;;;;;;;5032222;28;20112;-73
2022/11/22 08:40:27;;;;;;;3.63;0.43;;;;;;;;;;5029963;28;20025;-73
2022/11/22 08:42:54;;;;;;;0.75;0.40;;;;;;;;;;5027244;28;20132;-74
2022/11/22 08:45:20;;;;;;;6.72;0.65;;;;;;;;;;5028332;28;20354;-73
2022/11/22 08:47:47;;;;;;;11.65;1.13;;;;;;;;;;5029162;28;20037;-74
2022/11/22 08:50:13;;;;;;;3.15;0.65;;;;;;;;;;5030699;28;20033;-75
2022/11/22 08:52:39;;;;;;;6.68;1.17;;;;;;;;;;5031855;28;20358;-73
2022/11/22 08:55:05;;;;;;;15.10;1.88;;;;;;;;;;5029818;28;20025;-73
2022/11/22 08:57:31;;;;;;;12.75;2.15;;;;;;;;;;5028073;28;20022;-73
2022/11/22 08:59:57;;;;;;;10.70;1.75;;;;;;;;;;5029185;28;20359;-74
2022/11/22 09:02:23;;;;;;;3.25;0.73;;;;;;;;;;5028808;28;20028;-73
2022/11/22 09:04:48;;;;;;;11.32;1.30;;;;;;;;;;5031562;28;20060;-73
2022/11/22 09:07:14;;;;;;;11.63;1.83;;;;;;;;;;5029892;28;20076;-75
2022/11/22 09:09:41;;;;;;;4.35;0.75;;;;;;;;;;5028891;28;20044;-73
2022/11/22 09:12:06;;;;;;;4.82;0.82;;;;;;;;;;5030585;28;20045;-74
2022/11/22 09:14:32;;;;;;;14.73;2.05;;;;;;;;;;5031022;28;20033;-74
2022/11/22 09:16:58;;;;;;;8.13;2.17;;;;;;;;;;5029464;28;20326;-73
2022/11/22 09:19:24;;;;;;;11.10;1.25;;;;;;;;;;5028964;28;20032;-73
2022/11/22 09:21:50;;;;;;;4.05;1.83;;;;;;;;;;5028150;28;20033;-73
2022/11/22 09:24:16;;;;;;;13.40;3.85;;;;;;;;;;5030189;28;20067;-74
2022/11/22 09:26:42;;;;;;;10.50;1.38;;;;;;;;;;5029771;28;20033;-74
2022/11/22 09:29:08;;;;;;;14.82;2.10;;;;;;;;;;5030211;28;20551;-74
2022/11/22 09:31:34;;;;;;;12.02;3.08;;;;;;;;;;5030240;28;20029;-73
2022/11/22 09:33:59;;;;;;;9.32;2.08;;;;;;;;;;5029897;28;20024;-73
2022/11/22 09:36:25;;;;;;;10.20;1.13;;;;;;;;;;5029712;28;20022;-72
2022/11/22 09:38:52;;;;;;;14.50;2.58;;;;;;;;;;5046036;28;20022;-73
2022/11/22 09:41:27;;;;;;;13.35;3.65;;;;;;;;;;5030484;28;20036;-73
2022/11/22 09:44:03;;;;;;;18.65;3.67;;;;;;;;;;5030626;28;20075;-74
2022/11/22 09:46:35;;;;;;;10.38;2.15;;;;;;;;;;5030666;28;20099;-74
2022/11/22 09:49:19;;;;;;;14.50;3.30;;;;;;;;;;5030321;28;20447;-72
2022/11/22 09:51:48;;;;;;;15.50;2.63;;;;;;;;;;5030196;28;20026;-73
2022/11/22 09:54:20;;;;;;;15.65;4.20;;;;;;;;;;5029752;28;20021;-73
2022/11/22 09:56:47;;;;;;;10.40;3.30;;;;;;;;;;5029038;28;20533;-74
2022/11/22 09:59:33;;;;;;;9.75;2.08;;;;;;;;;;5030437;28;20036;-73
2022/11/22 10:02:08;;;;;;;12.45;2.45;;;;;;;;;;5024766;28;20112;-74
2022/11/22 10:04:43;;;;;;;5.78;1.48;;;;;;;;;;5021572;28;20053;-73
2022/11/22 10:24:36;;;;;;;13.45;2.70;;;;;;;;;;5016147;28;20056;-73
2022/11/22 10:27:02;;;;;;;15.02;3.20;;;;;;;;;;5024780;28;20037;-73
2022/11/22 10:29:35;;;;;;;15.85;2.13;;;;;;;;;;5025199;28;20140;-72
2022/11/22 10:32:01;;;;;;;13.40;1.92;;;;;;;;;;5023308;28;20033;-73
2022/11/22 10:34:29;;;;;;;22.42;3.67;;;;;;;;;;5006987;28;20618;-72
2022/11/22 10:37:01;;;;;;;10.13;2.25;;;;;;;;;;5024276;28;20025;-73
2022/11/22 10:39:46;;;;;;;11.88;2.65;;;;;;;;;;5024168;28;20436;-73
2022/11/22 10:42:21;;;;;;;1.45;0.63;;;;;;;;;;5022897;28;20037;-73
2022/11/22 10:45:06;;;;;;;1.15;0.20;;;;;;;;;;5025883;28;20048;-72
2022/11/22 10:47:45;;;;;;;4.35;0.77;;;;;;;;;;5021366;28;20045;-72
2022/11/22 10:50:26;;;;;;;0.10;0.10;;;;;;;;;;5021177;28;20481;-72
2022/11/22 10:52:52;;;;;;;0.10;0.10;;;;;;;;;;5024062;28;20025;-73
2022/11/22 10:55:33;;;;;;;0.10;0.10;;;;;;;;;;5026655;28;20417;-73
2022/11/22 10:57:59;;;;;;;0.03;0.03;;;;;;;;;;5015054;28;20029;-72
2022/11/22 11:00:26;;;;;;;0.10;0.10;;;;;;;;;;5026975;28;20029;-74
2022/11/22 11:02:58;;;;;;;0.10;0.10;;;;;;;;;;5026940;28;20034;-73
2022/11/22 11:05:28;;;;;;;0.10;0.10;;;;;;;;;;5027937;28;20116;-72
2022/11/22 11:07:55;;;;;;;0.10;0.10;;;;;;;;;;5026772;28;20100;-73
2022/11/22 11:10:22;;;;;;;0.10;0.10;;;;;;;;;;5027420;28;20022;-73
2022/11/22 11:12:47;;;;;;;0.10;0.10;;;;;;;;;;5025482;28;20041;-74
2022/11/22 11:15:20;;;;;;;0.40;0.40;;;;;;;;;;5029843;28;20469;-73
2022/11/22 11:17:49;;;;;;;0.10;0.10;;;;;;;;;;5031237;28;20045;-73
2022/11/22 11:20:41;;;;;;;0.10;0.10;;;;;;;;;;5030725;28;20029;-73
2022/11/22 11:23:08;;;;;;;0.10;0.10;;;;;;;;;;5026094;28;20056;-72
2022/11/22 11:25:42;;;;;;;0.10;0.10;;;;;;;;;;5031488;28;20019;-71
2022/11/22 11:28:11;;;;;;;0.20;0.20;;;;;;;;;;5030005;28;20464;-72
2022/11/22 11:31:03;;;;;;;0.10;0.10;;;;;;;;;;5044486;28;20590;-72
2022/11/22 11:33:30;;;;;;;0.10;0.10;;;;;;;;;;5029700;28;20128;-72
2022/11/22 11:36:02;;;;;;;0.10;0.10;;;;;;;;;;5027631;28;20022;-73
2022/11/22 11:38:29;;;;;;;0.10;0.10;;;;;;;;;;5044347;28;20033;-72
2022/11/22 11:40:55;;;;;;;0.10;0.10;;;;;;;;;;5029900;28;20029;-72
2022/11/22 11:43:22;;;;;;;0.17;0.17;;;;;;;;;;5030296;28;20060;-73
2022/11/22 11:45:48;;;;;;;0.10;0.10;;;;;;;;;;5029410;28;20036;-71
2022/11/22 11:48:42;;;;;;;0.10;0.10;;;;;;;;;;5027093;28;20541;-73
2022/11/22 11:58:19;;;;;;;0.20;0.20;;;;;;;;;;5095223;27;20165;-73
2022/11/22 12:00:46;;;;;;;0.20;0.20;;;;;;;;;;5122231;27;20016;-72
2022/11/22 12:03:14;;;;;;;0.10;0.10;;;;;;;;;;5136619;27;20378;-72
2022/11/22 12:05:40;;;;;;;2.30;2.20;;;;;;;;;;5105132;28;20032;-73
2022/11/22 12:08:25;;;;;;;0.60;0.40;;;;;;;;;;5104506;28;20031;-73
2022/11/22 12:11:00;;;;;;;0.65;0.30;;;;;;;;;;5098958;28;20024;-73
2022/11/22 12:13:26;;;;;;;1.83;0.75;;;;;;;;;;5093140;28;20565;-73
2022/11/22 12:16:11;;;;;;;0.20;0.20;;;;;;;;;;5095809;28;20024;-73
2022/11/22 12:18:42;;;;;;;0.15;0.15;;;;;;;;;;5096646;28;20367;-73
2022/11/22 12:21:26;;;;;;;2.67;0.25;;;;;;;;;;5089172;28;20035;-73
2022/11/22 12:24:08;;;;;;;0.10;0.10;;;;;;;;;;5093042;28;20028;-74
2022/11/22 12:26:34;;;;;;;3.55;1.52;;;;;;;;;;5094057;28;20043;-73
2022/11/22 12:29:00;;;;;;;6.18;3.60;;;;;;;;;;5089610;28;20479;-72
2022/11/22 12:31:58;;;;;;;2.47;1.02;;;;;;;;;;5096928;28;20023;-73
2022/11/22 12:34:24;;;;;;;0.10;0.10;;;;;;;;;;5057141;28;20048;-74
2022/11/22 12:36:49;;;;;;;0.10;0.10;;;;;;;;;;5092227;28;20815;-74
2022/11/22 12:39:21;;;;;;;5.45;0.82;;;;;;;;;;5097265;28;20032;-73
2022/11/22 12:41:48;;;;;;;0.10;0.10;;;;;;;;;;5092952;28;20028;-74
2022/11/22 12:44:19;;;;;;;1.25;0.82;;;;;;;;;;5085882;28;20593;-74
2022/11/22 12:46:58;;;;;;;0.10;0.10;;;;;;;;;;5089302;28;20047;-73
2022/11/22 12:49:24;;;;;;;0.10;0.10;;;;;;;;;;5090808;28;20036;-74
2022/11/22 12:52:05;;;;;;;0.10;0.10;;;;;;;;;;5089410;28;20023;-73
2022/11/22 12:54:33;;;;;;;0.10;0.10;;;;;;;;;;5087161;28;20482;-73
2022/11/22 12:57:03;;;;;;;0.10;0.10;;;;;;;;;;5082102;28;20515;-74
2022/11/22 12:59:38;;;;;;;12.23;1.42;;;;;;;;;;5083653;28;20374;-73
2022/11/22 13:02:11;;;;;;;14.05;0.50;;;;;;;;;;5082517;28;20032;-74
2022/11/22 13:04:40;;;;;;;0.10;0.10;;;;;;;;;;5081426;28;20055;-72
2022/11/22 13:07:09;;;;;;;4.35;1.13;;;;;;;;;;5080363;28;20029;-73
2022/11/22 13:09:37;;;;;;;1.27;0.60;;;;;;;;;;5066585;28;20025;-72
2022/11/22 13:12:13;;;;;;;0.20;0.20;;;;;;;;;;5068986;28;20035;-73
2022/11/22 13:14:43;;;;;;;0.52;0.20;;;;;;;;;;5068494;28;20612;-74
2022/11/22 13:17:10;;;;;;;0.10;0.10;;;;;;;;;;5051955;28;20047;-74
2022/11/22 13:19:42;;;;;;;10.05;1.38;;;;;;;;;;5069837;28;20032;-74
2022/11/22 13:22:14;;;;;;;0.10;0.10;;;;;;;;;;5069500;28;20036;-74
2022/11/22 13:24:39;;;;;;;0.10;0.10;;;;;;;;;;5069957;28;20111;-73
2022/11/22 13:27:11;;;;;;;0.20;0.20;;;;;;;;;;5066119;28;20112;-73
2022/11/22 13:29:39;;;;;;;1.45;0.60;;;;;;;;;;5068910;28;20074;-74
2022/11/22 13:32:11;;;;;;;0.43;0.22;;;;;;;;;;5065785;28;20063;-73
2022/11/22 13:34:41;;;;;;;3.40;1.98;;;;;;;;;;5069532;28;20368;-73
2022/11/22 13:37:09;;;;;;;1.83;0.90;;;;;;;;;;5068185;28;20388;-74
2022/11/22 13:39:40;;;;;;;6.20;1.23;;;;;;;;;;5066129;28;20414;-73
2022/11/22 13:42:06;;;;;;;4.70;0.60;;;;;;;;;;5068981;28;20090;-73
2022/11/22 13:44:32;;;;;;;0.60;0.30;;;;;;;;;;5068906;28;20098;-74
2022/11/22 13:46:59;;;;;;;1.48;0.60;;;;;;;;;;5067226;28;20478;-75
2022/11/22 13:49:27;;;;;;;4.40;1.83;;;;;;;;;;5069044;28;20021;-73
2022/11/22 13:51:54;;;;;;;10.82;2.50;;;;;;;;;;5068566;28;20085;-74
2022/11/22 13:54:31;;;;;;;15.18;2.58;;;;;;;;;;5063069;28;20017;-74
2022/11/22 13:56:58;;;;;;;5.47;1.58;;;;;;;;;;5063280;28;20414;-73
2022/11/22 13:59:24;;;;;;;6.75;1.30;;;;;;;;;;5063015;28;20021;-74
2022/11/22 14:01:50;;;;;;;2.45;0.43;;;;;;;;;;5067566;28;20367;-73
2022/11/22 14:04:16;;;;;;;5.72;0.55;;;;;;;;;;5068822;28;20029;-73
2022/11/22 14:06:48;;;;;;;5.88;1.42;;;;;;;;;;5048501;28;20071;-73
2022/11/22 14:09:43;;;;;;;0.55;0.30;;;;;;;;;;5081120;28;20029;-73
2022/11/22 14:12:09;;;;;;;0.40;0.40;;;;;;;;;;5047682;28;20044;-73
2022/11/22 14:14:47;;;;;;;1.17;0.70;;;;;;;;;;5060078;28;20547;-74
2022/11/22 14:17:13;;;;;;;6.20;1.00;;;;;;;;;;5055350;28;20033;-74
2022/11/22 14:19:45;;;;;;;5.63;1.02;;;;;;;;;;5082321;28;20035;-73
2022/11/22 14:22:11;;;;;;;5.38;1.30;;;;;;;;;;5050748;28;20486;-73
2022/11/22 14:24:49;;;;;;;0.10;0.10;;;;;;;;;;5049223;28;20116;-74
2022/11/22 14:27:33;;;;;;;3.22;1.45;;;;;;;;;;5049526;28;20117;-74
2022/11/22 14:30:02;;;;;;;8.90;0.60;;;;;;;;;;5049435;28;20488;-74
2022/11/22 14:32:58;;;;;;;12.82;1.35;;;;;;;;;;5068090;28;20016;-74
2022/11/22 14:35:25;;;;;;;3.22;0.35;;;;;;;;;;5044960;28;20515;-76
2022/11/22 14:37:58;;;;;;;6.22;0.95;;;;;;;;;;5068702;28;20143;-76
2022/11/22 14:40:40;;;;;;;1.00;0.47;;;;;;;;;;5065936;28;20025;-74
2022/11/22 14:43:15;;;;;;;1.45;0.38;;;;;;;;;;5067322;28;20406;-74
2022/11/22 14:45:48;;;;;;;1.35;0.35;;;;;;;;;;5069458;28;20027;-73
2022/11/22 14:48:18;;;;;;;0.10;0.10;;;;;;;;;;5070062;28;20024;-74
2022/11/22 14:50:47;;;;;;;3.47;0.75;;;;;;;;;;5065136;28;20025;-75
2022/11/22 14:53:51;;;;;;;3.63;0.88;;;;;;;;;;5077859;28;20036;-74
2022/11/22 14:56:21;;;;;;;1.40;0.85;;;;;;;;;;5005485;28;20217;-73
2022/11/22 14:58:50;;;;;;;3.25;0.57;;;;;;;;;;5007665;28;20120;-74
2022/11/22 15:01:23;;;;;;;2.17;0.47;;;;;;;;;;5039047;28;20070;-74
2022/11/22 15:03:52;;;;;;;0.30;0.30;;;;;;;;;;5068910;28;20021;-73
2022/11/22 15:06:25;;;;;;;0.23;0.23;;;;;;;;;;5059863;28;20039;-73
2022/11/22 15:09:00;;;;;;;2.88;0.52;;;;;;;;;;5051160;28;20063;-72
2022/11/22 15:11:26;;;;;;;1.77;1.38;;;;;;;;;;5050170;28;20059;-75
2022/11/22 15:13:52;;;;;;;0.10;0.10;;;;;;;;;;5046813;28;20052;-73
2022/11/22 15:16:20;;;;;;;0.10;0.10;;;;;;;;;;5054199;28;20078;-74
2022/11/22 15:18:48;;;;;;;0.10;0.10;;;;;;;;;;5069148;28;20357;-72
2022/11/22 15:21:23;;;;;;;0.00;0.00;;;;;;;;;;5050946;28;20111;-74